sensor_id;sensor_type;location;lat;lon;timestamp;P1;durP1;ratioP1;P2;durP2;ratioP2
12770;SDS011;6449;47.666;9.160;2022-09-09T00:00:37;7.18;;;1.30;;
12770;SDS011;6449;47.666;9.160;2022-09-09T00:05:39;2.90;;;1.20;;
12770;SDS011;6449;47.666;9.160;2022-09-09T00:10:40;10.25;;;1.60;;
12770;SDS011;6449;47.666;9.160;2022-09-09T00:15:35;2.30;;;1.40;;
12770;SDS011;6449;47.666;9.160;2022-09-09T00:20:39;3.85;;;1.25;;
12770;SDS011;6449;47.666;9.160;2022-09-09T00:25:47;2.38;;;1.30;;
12770;SDS011;6449;47.666;9.160;2022-09-09T00:30:56;2.60;;;1.83;;
12770;SDS011;6449;47.666;9.160;2022-09-09T00:35:57;2.70;;;1.88;;
12770;SDS011;6449;47.666;9.160;2022-09-09T00:40:55;2.45;;;1.42;;
12770;SDS011;6449;47.666;9.160;2022-09-09T00:46:13;3.50;;;1.40;;
12770;SDS011;6449;47.666;9.160;2022-09-09T00:51:35;4.72;;;1.40;;
12770;SDS011;6449;47.666;9.160;2022-09-09T00:56:47;1.42;;;1.10;;
12770;SDS011;6449;47.666;9.160;2022-09-09T01:01:57;1.33;;;1.23;;
12770;SDS011;6449;47.666;9.160;2022-09-09T01:06:53;2.65;;;1.10;;
12770;SDS011;6449;47.666;9.160;2022-09-09T01:12:01;2.63;;;1.30;;
12770;SDS011;6449;47.666;9.160;2022-09-09T01:17:07;1.50;;;1.40;;
12770;SDS011;6449;47.666;9.160;2022-09-09T01:22:09;2.10;;;1.38;;
12770;SDS011;6449;47.666;9.160;2022-09-09T01:27:14;2.05;;;1.27;;
12770;SDS011;6449;47.666;9.160;2022-09-09T01:37:34;3.50;;;1.35;;
12770;SDS011;6449;47.666;9.160;2022-09-09T01:42:30;3.25;;;1.10;;
12770;SDS011;6449;47.666;9.160;2022-09-09T01:47:23;2.58;;;1.30;;
12770;SDS011;6449;47.666;9.160;2022-09-09T01:52:17;1.67;;;1.33;;
12770;SDS011;6449;47.666;9.160;2022-09-09T01:57:12;6.22;;;1.58;;
12770;SDS011;6449;47.666;9.160;2022-09-09T02:02:16;1.65;;;1.20;;
12770;SDS011;6449;47.666;9.160;2022-09-09T02:07:16;2.30;;;1.30;;
12770;SDS011;6449;47.666;9.160;2022-09-09T02:12:26;2.55;;;1.20;;
12770;SDS011;6449;47.666;9.160;2022-09-09T02:17:24;3.80;;;2.10;;
12770;SDS011;6449;47.666;9.160;2022-09-09T02:22:23;1.95;;;1.25;;
12770;SDS011;6449;47.666;9.160;2022-09-09T02:27:20;1.95;;;1.42;;
12770;SDS011;6449;47.666;9.160;2022-09-09T02:32:17;1.75;;;1.27;;
12770;SDS011;6449;47.666;9.160;2022-09-09T02:37:16;1.77;;;1.33;;
12770;SDS011;6449;47.666;9.160;2022-09-09T02:42:15;2.55;;;1.40;;
12770;SDS011;6449;47.666;9.160;2022-09-09T02:47:15;2.72;;;1.40;;
12770;SDS011;6449;47.666;9.160;2022-09-09T02:52:32;2.35;;;1.30;;
12770;SDS011;6449;47.666;9.160;2022-09-09T02:57:39;2.40;;;1.58;;
12770;SDS011;6449;47.666;9.160;2022-09-09T03:02:36;2.92;;;1.42;;
12770;SDS011;6449;47.666;9.160;2022-09-09T03:07:31;2.88;;;1.83;;
12770;SDS011;6449;47.666;9.160;2022-09-09T03:12:24;3.88;;;2.00;;
12770;SDS011;6449;47.666;9.160;2022-09-09T03:17:18;6.38;;;2.28;;
12770;SDS011;6449;47.666;9.160;2022-09-09T03:22:13;4.70;;;2.25;;
12770;SDS011;6449;47.666;9.160;2022-09-09T03:27:07;5.95;;;2.22;;
12770;SDS011;6449;47.666;9.160;2022-09-09T03:32:01;6.60;;;2.13;;
12770;SDS011;6449;47.666;9.160;2022-09-09T03:36:55;4.13;;;2.25;;
12770;SDS011;6449;47.666;9.160;2022-09-09T03:41:48;5.00;;;2.08;;
12770;SDS011;6449;47.666;9.160;2022-09-09T03:46:43;2.05;;;1.80;;
12770;SDS011;6449;47.666;9.160;2022-09-09T03:51:37;5.85;;;1.52;;
12770;SDS011;6449;47.666;9.160;2022-09-09T03:56:31;2.58;;;1.27;;
12770;SDS011;6449;47.666;9.160;2022-09-09T04:01:24;1.60;;;1.17;;
12770;SDS011;6449;47.666;9.160;2022-09-09T04:06:20;2.45;;;1.02;;
12770;SDS011;6449;47.666;9.160;2022-09-09T04:11:14;6.75;;;1.13;;
12770;SDS011;6449;47.666;9.160;2022-09-09T04:16:09;2.30;;;0.95;;
12770;SDS011;6449;47.666;9.160;2022-09-09T04:21:04;2.67;;;0.90;;
12770;SDS011;6449;47.666;9.160;2022-09-09T04:26:00;3.17;;;1.27;;
12770;SDS011;6449;47.666;9.160;2022-09-09T04:30:55;3.10;;;1.20;;
12770;SDS011;6449;47.666;9.160;2022-09-09T04:35:49;2.38;;;1.10;;
12770;SDS011;6449;47.666;9.160;2022-09-09T04:40:46;2.20;;;0.93;;
12770;SDS011;6449;47.666;9.160;2022-09-09T04:45:41;1.23;;;0.90;;
12770;SDS011;6449;47.666;9.160;2022-09-09T04:50:35;1.80;;;1.10;;
12770;SDS011;6449;47.666;9.160;2022-09-09T04:55:28;1.65;;;1.15;;
12770;SDS011;6449;47.666;9.160;2022-09-09T05:00:22;4.40;;;1.00;;
12770;SDS011;6449;47.666;9.160;2022-09-09T05:05:20;1.05;;;0.98;;
12770;SDS011;6449;47.666;9.160;2022-09-09T05:10:13;4.38;;;0.95;;
12770;SDS011;6449;47.666;9.160;2022-09-09T05:15:09;3.22;;;1.05;;
12770;SDS011;6449;47.666;9.160;2022-09-09T05:20:03;2.00;;;1.10;;
12770;SDS011;6449;47.666;9.160;2022-09-09T05:25:03;1.80;;;1.20;;
12770;SDS011;6449;47.666;9.160;2022-09-09T05:29:57;1.48;;;1.08;;
12770;SDS011;6449;47.666;9.160;2022-09-09T05:34:50;2.60;;;1.00;;
12770;SDS011;6449;47.666;9.160;2022-09-09T05:39:43;1.38;;;1.13;;
12770;SDS011;6449;47.666;9.160;2022-09-09T05:44:39;2.80;;;1.30;;
12770;SDS011;6449;47.666;9.160;2022-09-09T05:49:36;1.35;;;1.08;;
12770;SDS011;6449;47.666;9.160;2022-09-09T05:54:29;2.97;;;1.02;;
12770;SDS011;6449;47.666;9.160;2022-09-09T05:59:23;2.08;;;1.40;;
12770;SDS011;6449;47.666;9.160;2022-09-09T06:04:18;1.27;;;1.08;;
12770;SDS011;6449;47.666;9.160;2022-09-09T06:09:13;3.30;;;1.10;;
12770;SDS011;6449;47.666;9.160;2022-09-09T06:14:07;1.92;;;1.00;;
12770;SDS011;6449;47.666;9.160;2022-09-09T06:19:01;3.20;;;1.02;;
12770;SDS011;6449;47.666;9.160;2022-09-09T06:23:56;1.52;;;0.90;;
12770;SDS011;6449;47.666;9.160;2022-09-09T06:28:52;2.58;;;0.93;;
12770;SDS011;6449;47.666;9.160;2022-09-09T06:33:48;1.75;;;0.70;;
12770;SDS011;6449;47.666;9.160;2022-09-09T06:38:44;2.05;;;0.90;;
12770;SDS011;6449;47.666;9.160;2022-09-09T06:43:39;1.05;;;0.90;;
12770;SDS011;6449;47.666;9.160;2022-09-09T06:48:32;2.03;;;1.25;;
12770;SDS011;6449;47.666;9.160;2022-09-09T06:53:27;1.75;;;1.25;;
12770;SDS011;6449;47.666;9.160;2022-09-09T06:58:21;4.03;;;1.20;;
12770;SDS011;6449;47.666;9.160;2022-09-09T07:03:15;1.35;;;1.15;;
12770;SDS011;6449;47.666;9.160;2022-09-09T07:08:09;1.70;;;1.23;;
12770;SDS011;6449;47.666;9.160;2022-09-09T07:13:03;2.17;;;1.10;;
12770;SDS011;6449;47.666;9.160;2022-09-09T07:18:00;4.00;;;1.30;;
12770;SDS011;6449;47.666;9.160;2022-09-09T07:22:55;2.40;;;1.13;;
12770;SDS011;6449;47.666;9.160;2022-09-09T07:27:49;3.08;;;1.17;;
12770;SDS011;6449;47.666;9.160;2022-09-09T07:32:42;1.20;;;1.10;;
12770;SDS011;6449;47.666;9.160;2022-09-09T07:37:36;1.58;;;1.10;;
12770;SDS011;6449;47.666;9.160;2022-09-09T07:42:41;0.98;;;0.90;;
12770;SDS011;6449;47.666;9.160;2022-09-09T07:47:34;1.30;;;0.88;;
12770;SDS011;6449;47.666;9.160;2022-09-09T07:52:28;2.45;;;1.10;;
12770;SDS011;6449;47.666;9.160;2022-09-09T07:57:21;1.08;;;1.00;;
12770;SDS011;6449;47.666;9.160;2022-09-09T08:02:23;1.98;;;0.90;;
12770;SDS011;6449;47.666;9.160;2022-09-09T08:07:24;0.63;;;0.63;;
12770;SDS011;6449;47.666;9.160;2022-09-09T08:12:18;2.28;;;0.85;;
12770;SDS011;6449;47.666;9.160;2022-09-09T08:17:12;2.47;;;0.93;;
12770;SDS011;6449;47.666;9.160;2022-09-09T08:22:06;2.97;;;0.77;;
12770;SDS011;6449;47.666;9.160;2022-09-09T08:27:00;1.20;;;0.80;;
12770;SDS011;6449;47.666;9.160;2022-09-09T08:31:54;1.30;;;0.80;;
12770;SDS011;6449;47.666;9.160;2022-09-09T08:36:49;2.85;;;0.98;;
12770;SDS011;6449;47.666;9.160;2022-09-09T08:41:58;2.50;;;1.08;;
12770;SDS011;6449;47.666;9.160;2022-09-09T08:47:21;2.92;;;1.83;;
12770;SDS011;6449;47.666;9.160;2022-09-09T08:52:28;3.40;;;0.80;;
12770;SDS011;6449;47.666;9.160;2022-09-09T08:57:26;0.93;;;0.77;;
12770;SDS011;6449;47.666;9.160;2022-09-09T09:02:24;2.28;;;0.90;;
12770;SDS011;6449;47.666;9.160;2022-09-09T09:07:40;2.60;;;0.95;;
12770;SDS011;6449;47.666;9.160;2022-09-09T09:12:52;0.95;;;0.77;;
12770;SDS011;6449;47.666;9.160;2022-09-09T09:18:00;1.85;;;0.73;;
12770;SDS011;6449;47.666;9.160;2022-09-09T09:22:57;3.45;;;1.00;;
12770;SDS011;6449;47.666;9.160;2022-09-09T09:27:59;1.70;;;0.90;;
12770;SDS011;6449;47.666;9.160;2022-09-09T09:32:58;0.88;;;0.70;;
12770;SDS011;6449;47.666;9.160;2022-09-09T09:38:01;0.70;;;0.70;;
12770;SDS011;6449;47.666;9.160;2022-09-09T09:43:29;2.20;;;1.30;;
12770;SDS011;6449;47.666;9.160;2022-09-09T09:48:27;2.15;;;0.90;;
12770;SDS011;6449;47.666;9.160;2022-09-09T09:53:22;1.73;;;1.00;;
12770;SDS011;6449;47.666;9.160;2022-09-09T09:58:18;1.55;;;0.93;;
12770;SDS011;6449;47.666;9.160;2022-09-09T10:03:21;2.00;;;0.95;;
12770;SDS011;6449;47.666;9.160;2022-09-09T10:08:18;0.93;;;0.70;;
12770;SDS011;6449;47.666;9.160;2022-09-09T10:13:14;1.58;;;1.00;;
12770;SDS011;6449;47.666;9.160;2022-09-09T10:18:21;1.95;;;0.70;;
12770;SDS011;6449;47.666;9.160;2022-09-09T10:23:43;3.13;;;0.95;;
12770;SDS011;6449;47.666;9.160;2022-09-09T10:34:24;2.38;;;0.80;;
12770;SDS011;6449;47.666;9.160;2022-09-09T10:39:50;2.10;;;0.90;;
12770;SDS011;6449;47.666;9.160;2022-09-09T10:44:57;2.67;;;0.90;;
12770;SDS011;6449;47.666;9.160;2022-09-09T10:50:15;3.45;;;0.90;;
12770;SDS011;6449;47.666;9.160;2022-09-09T10:55:48;3.40;;;0.90;;
12770;SDS011;6449;47.666;9.160;2022-09-09T11:00:49;0.90;;;0.88;;
12770;SDS011;6449;47.666;9.160;2022-09-09T11:05:51;4.25;;;0.90;;
12770;SDS011;6449;47.666;9.160;2022-09-09T11:10:53;2.90;;;1.10;;
12770;SDS011;6449;47.666;9.160;2022-09-09T11:15:56;3.03;;;0.95;;
12770;SDS011;6449;47.666;9.160;2022-09-09T11:21:06;1.30;;;0.93;;
12770;SDS011;6449;47.666;9.160;2022-09-09T11:26:10;1.20;;;0.65;;
12770;SDS011;6449;47.666;9.160;2022-09-09T11:31:17;1.48;;;0.70;;
12770;SDS011;6449;47.666;9.160;2022-09-09T11:36:46;2.25;;;0.90;;
12770;SDS011;6449;47.666;9.160;2022-09-09T11:42:12;2.05;;;0.80;;
12770;SDS011;6449;47.666;9.160;2022-09-09T11:47:16;1.25;;;0.77;;
12770;SDS011;6449;47.666;9.160;2022-09-09T11:52:23;3.65;;;0.90;;
12770;SDS011;6449;47.666;9.160;2022-09-09T11:57:30;2.83;;;0.60;;
12770;SDS011;6449;47.666;9.160;2022-09-09T12:02:28;2.03;;;0.98;;
12770;SDS011;6449;47.666;9.160;2022-09-09T12:07:28;2.28;;;0.80;;
12770;SDS011;6449;47.666;9.160;2022-09-09T12:12:32;1.88;;;0.60;;
12770;SDS011;6449;47.666;9.160;2022-09-09T12:17:37;0.88;;;0.70;;
12770;SDS011;6449;47.666;9.160;2022-09-09T12:22:41;1.10;;;0.68;;
12770;SDS011;6449;47.666;9.160;2022-09-09T12:28:04;1.75;;;0.75;;
12770;SDS011;6449;47.666;9.160;2022-09-09T12:33:08;1.55;;;0.80;;
12770;SDS011;6449;47.666;9.160;2022-09-09T12:38:09;2.38;;;1.00;;
12770;SDS011;6449;47.666;9.160;2022-09-09T12:43:16;1.92;;;1.02;;
12770;SDS011;6449;47.666;9.160;2022-09-09T12:48:12;1.60;;;0.88;;
12770;SDS011;6449;47.666;9.160;2022-09-09T12:53:14;0.57;;;0.57;;
12770;SDS011;6449;47.666;9.160;2022-09-09T12:58:25;1.05;;;0.60;;
12770;SDS011;6449;47.666;9.160;2022-09-09T13:03:24;1.92;;;1.00;;
12770;SDS011;6449;47.666;9.160;2022-09-09T13:08:20;2.35;;;1.20;;
12770;SDS011;6449;47.666;9.160;2022-09-09T13:13:19;1.55;;;0.90;;
12770;SDS011;6449;47.666;9.160;2022-09-09T13:18:52;2.28;;;1.10;;
12770;SDS011;6449;47.666;9.160;2022-09-09T13:24:32;2.45;;;1.02;;
12770;SDS011;6449;47.666;9.160;2022-09-09T13:32:18;1.65;;;0.82;;
12770;SDS011;6449;47.666;9.160;2022-09-09T13:35:55;1.40;;;0.75;;
12770;SDS011;6449;47.666;9.160;2022-09-09T13:41:36;0.70;;;0.70;;
12770;SDS011;6449;47.666;9.160;2022-09-09T13:53:06;1.95;;;1.00;;
12770;SDS011;6449;47.666;9.160;2022-09-09T14:03:23;1.40;;;1.10;;
12770;SDS011;6449;47.666;9.160;2022-09-09T14:14:14;1.83;;;0.88;;
12770;SDS011;6449;47.666;9.160;2022-09-09T14:19:20;2.67;;;1.05;;
12770;SDS011;6449;47.666;9.160;2022-09-09T14:29:46;2.15;;;0.90;;
12770;SDS011;6449;47.666;9.160;2022-09-09T14:36:09;0.90;;;0.90;;
12770;SDS011;6449;47.666;9.160;2022-09-09T14:59:52;1.65;;;0.88;;
12770;SDS011;6449;47.666;9.160;2022-09-09T15:21:21;2.13;;;1.10;;
12770;SDS011;6449;47.666;9.160;2022-09-09T15:26:16;1.15;;;0.82;;
12770;SDS011;6449;47.666;9.160;2022-09-09T15:31:11;1.23;;;0.80;;
12770;SDS011;6449;47.666;9.160;2022-09-09T15:36:15;3.33;;;0.80;;
12770;SDS011;6449;47.666;9.160;2022-09-09T15:47:34;1.63;;;0.60;;
12770;SDS011;6449;47.666;9.160;2022-09-09T15:52:27;1.30;;;0.60;;
12770;SDS011;6449;47.666;9.160;2022-09-09T15:57:21;2.88;;;1.02;;
12770;SDS011;6449;47.666;9.160;2022-09-09T16:02:17;0.38;;;0.38;;
12770;SDS011;6449;47.666;9.160;2022-09-09T16:07:16;1.65;;;0.52;;
12770;SDS011;6449;47.666;9.160;2022-09-09T16:12:09;2.05;;;0.50;;
12770;SDS011;6449;47.666;9.160;2022-09-09T16:17:04;0.60;;;0.30;;
12770;SDS011;6449;47.666;9.160;2022-09-09T16:22:05;1.13;;;0.32;;
12770;SDS011;6449;47.666;9.160;2022-09-09T16:27:00;1.10;;;0.30;;
12770;SDS011;6449;47.666;9.160;2022-09-09T16:31:53;0.80;;;0.70;;
12770;SDS011;6449;47.666;9.160;2022-09-09T16:36:53;0.98;;;0.40;;
12770;SDS011;6449;47.666;9.160;2022-09-09T16:41:47;2.00;;;0.70;;
12770;SDS011;6449;47.666;9.160;2022-09-09T16:46:42;3.15;;;0.55;;
12770;SDS011;6449;47.666;9.160;2022-09-09T16:51:40;1.98;;;0.55;;
12770;SDS011;6449;47.666;9.160;2022-09-09T16:56:36;0.82;;;0.40;;
12770;SDS011;6449;47.666;9.160;2022-09-09T17:01:33;1.15;;;0.65;;
12770;SDS011;6449;47.666;9.160;2022-09-09T17:06:32;0.55;;;0.40;;
12770;SDS011;6449;47.666;9.160;2022-09-09T17:11:28;3.50;;;0.60;;
12770;SDS011;6449;47.666;9.160;2022-09-09T17:16:23;1.25;;;0.40;;
12770;SDS011;6449;47.666;9.160;2022-09-09T17:21:23;1.13;;;0.45;;
12770;SDS011;6449;47.666;9.160;2022-09-09T17:26:20;0.52;;;0.50;;
12770;SDS011;6449;47.666;9.160;2022-09-09T17:31:17;0.88;;;0.55;;
12770;SDS011;6449;47.666;9.160;2022-09-09T17:36:12;1.63;;;0.60;;
12770;SDS011;6449;47.666;9.160;2022-09-09T17:41:08;1.20;;;0.52;;
12770;SDS011;6449;47.666;9.160;2022-09-09T17:46:07;1.38;;;0.50;;
12770;SDS011;6449;47.666;9.160;2022-09-09T17:51:03;1.80;;;0.57;;
12770;SDS011;6449;47.666;9.160;2022-09-09T17:56:02;1.48;;;0.50;;
12770;SDS011;6449;47.666;9.160;2022-09-09T18:01:01;1.85;;;0.50;;
12770;SDS011;6449;47.666;9.160;2022-09-09T18:06:00;2.17;;;0.95;;
12770;SDS011;6449;47.666;9.160;2022-09-09T18:10:56;3.33;;;1.20;;
12770;SDS011;6449;47.666;9.160;2022-09-09T18:15:49;4.32;;;0.88;;
12770;SDS011;6449;47.666;9.160;2022-09-09T18:20:42;0.77;;;0.60;;
12770;SDS011;6449;47.666;9.160;2022-09-09T18:25:38;1.20;;;0.70;;
12770;SDS011;6449;47.666;9.160;2022-09-09T18:30:32;2.20;;;0.50;;
12770;SDS011;6449;47.666;9.160;2022-09-09T18:35:29;1.08;;;0.60;;
12770;SDS011;6449;47.666;9.160;2022-09-09T18:40:22;1.55;;;0.70;;
12770;SDS011;6449;47.666;9.160;2022-09-09T18:45:21;1.20;;;0.57;;
12770;SDS011;6449;47.666;9.160;2022-09-09T18:50:15;0.70;;;0.57;;
12770;SDS011;6449;47.666;9.160;2022-09-09T18:55:09;1.95;;;0.80;;
12770;SDS011;6449;47.666;9.160;2022-09-09T19:00:03;1.63;;;0.80;;
12770;SDS011;6449;47.666;9.160;2022-09-09T19:05:01;1.90;;;0.57;;
12770;SDS011;6449;47.666;9.160;2022-09-09T19:09:54;0.77;;;0.60;;
12770;SDS011;6449;47.666;9.160;2022-09-09T19:14:48;1.58;;;0.70;;
12770;SDS011;6449;47.666;9.160;2022-09-09T19:19:43;1.55;;;1.02;;
12770;SDS011;6449;47.666;9.160;2022-09-09T19:24:37;1.38;;;0.68;;
12770;SDS011;6449;47.666;9.160;2022-09-09T19:29:31;0.82;;;0.52;;
12770;SDS011;6449;47.666;9.160;2022-09-09T19:34:29;1.48;;;0.68;;
12770;SDS011;6449;47.666;9.160;2022-09-09T19:39:23;2.05;;;0.98;;
12770;SDS011;6449;47.666;9.160;2022-09-09T19:44:18;2.72;;;1.13;;
12770;SDS011;6449;47.666;9.160;2022-09-09T19:49:12;1.08;;;0.80;;
12770;SDS011;6449;47.666;9.160;2022-09-09T19:54:08;0.82;;;0.45;;
12770;SDS011;6449;47.666;9.160;2022-09-09T19:59:05;0.45;;;0.40;;
12770;SDS011;6449;47.666;9.160;2022-09-09T20:04:03;1.35;;;0.75;;
12770;SDS011;6449;47.666;9.160;2022-09-09T20:09:00;3.28;;;0.77;;
12770;SDS011;6449;47.666;9.160;2022-09-09T20:13:55;0.50;;;0.45;;
12770;SDS011;6449;47.666;9.160;2022-09-09T20:18:48;3.30;;;0.88;;
12770;SDS011;6449;47.666;9.160;2022-09-09T20:23:46;0.60;;;0.60;;
12770;SDS011;6449;47.666;9.160;2022-09-09T20:28:41;0.60;;;0.50;;
12770;SDS011;6449;47.666;9.160;2022-09-09T20:33:38;0.50;;;0.50;;
12770;SDS011;6449;47.666;9.160;2022-09-09T20:38:34;1.77;;;0.40;;
12770;SDS011;6449;47.666;9.160;2022-09-09T20:43:29;1.58;;;0.68;;
12770;SDS011;6449;47.666;9.160;2022-09-09T20:48:23;0.40;;;0.40;;
12770;SDS011;6449;47.666;9.160;2022-09-09T20:53:16;0.63;;;0.60;;
12770;SDS011;6449;47.666;9.160;2022-09-09T20:58:09;0.43;;;0.43;;
12770;SDS011;6449;47.666;9.160;2022-09-09T21:03:04;1.77;;;0.80;;
12770;SDS011;6449;47.666;9.160;2022-09-09T21:07:57;1.65;;;0.50;;
12770;SDS011;6449;47.666;9.160;2022-09-09T21:12:51;0.68;;;0.57;;
12770;SDS011;6449;47.666;9.160;2022-09-09T21:17:44;2.53;;;0.60;;
12770;SDS011;6449;47.666;9.160;2022-09-09T21:22:39;0.75;;;0.70;;
12770;SDS011;6449;47.666;9.160;2022-09-09T21:27:32;0.57;;;0.57;;
12770;SDS011;6449;47.666;9.160;2022-09-09T21:32:25;3.08;;;0.70;;
12770;SDS011;6449;47.666;9.160;2022-09-09T21:37:19;0.63;;;0.63;;
12770;SDS011;6449;47.666;9.160;2022-09-09T21:42:13;1.75;;;0.68;;
12770;SDS011;6449;47.666;9.160;2022-09-09T21:47:07;0.30;;;0.30;;
12770;SDS011;6449;47.666;9.160;2022-09-09T21:52:00;0.63;;;0.40;;
12770;SDS011;6449;47.666;9.160;2022-09-09T21:56:54;3.35;;;0.80;;
12770;SDS011;6449;47.666;9.160;2022-09-09T22:01:50;1.25;;;0.60;;
12770;SDS011;6449;47.666;9.160;2022-09-09T22:06:44;1.95;;;0.75;;
12770;SDS011;6449;47.666;9.160;2022-09-09T22:11:38;2.13;;;0.80;;
12770;SDS011;6449;47.666;9.160;2022-09-09T22:16:31;2.05;;;0.70;;
12770;SDS011;6449;47.666;9.160;2022-09-09T22:21:26;0.73;;;0.55;;
12770;SDS011;6449;47.666;9.160;2022-09-09T22:26:23;1.42;;;0.80;;
12770;SDS011;6449;47.666;9.160;2022-09-09T22:31:19;1.15;;;0.60;;
12770;SDS011;6449;47.666;9.160;2022-09-09T22:36:13;2.55;;;1.00;;
12770;SDS011;6449;47.666;9.160;2022-09-09T22:41:08;0.93;;;0.60;;
12770;SDS011;6449;47.666;9.160;2022-09-09T22:46:02;0.50;;;0.50;;
12770;SDS011;6449;47.666;9.160;2022-09-09T22:50:59;1.17;;;0.60;;
12770;SDS011;6449;47.666;9.160;2022-09-09T22:55:55;1.50;;;0.70;;
12770;SDS011;6449;47.666;9.160;2022-09-09T23:00:52;1.05;;;0.40;;
12770;SDS011;6449;47.666;9.160;2022-09-09T23:05:52;0.95;;;0.60;;
12770;SDS011;6449;47.666;9.160;2022-09-09T23:10:47;1.95;;;0.50;;
12770;SDS011;6449;47.666;9.160;2022-09-09T23:15:41;0.77;;;0.40;;
12770;SDS011;6449;47.666;9.160;2022-09-09T23:20:37;0.70;;;0.70;;
12770;SDS011;6449;47.666;9.160;2022-09-09T23:25:31;1.52;;;0.63;;
12770;SDS011;6449;47.666;9.160;2022-09-09T23:30:26;1.58;;;0.50;;
12770;SDS011;6449;47.666;9.160;2022-09-09T23:35:20;0.85;;;0.47;;
12770;SDS011;6449;47.666;9.160;2022-09-09T23:40:15;1.63;;;0.60;;
12770;SDS011;6449;47.666;9.160;2022-09-09T23:45:09;0.60;;;0.60;;
12770;SDS011;6449;47.666;9.160;2022-09-09T23:50:02;0.55;;;0.55;;
12770;SDS011;6449;47.666;9.160;2022-09-09T23:54:57;0.85;;;0.80;;
12770;SDS011;6449;47.666;9.160;2022-09-09T23:59:52;0.73;;;0.73;;
